Time,TemperatureF,DewpointF,PressureIn,WindDirection,WindDirectionDegrees,WindSpeedMPH,WindSpeedGustMPH,Humidity,HourlyPrecipIn,Conditions,Clouds,dailyrainin,SoftwareType,DateUTC
2013-04-06 00:09:00,51.3,45.0,30.09,North,0,0.0,-999.0,80,-99.99,,,0.00,weatherlink.com 1.10,2013-04-06 05:09:00,
2013-04-06 00:24:00,51.1,46.0,30.10,North,0,0.0,-999.0,82,-99.99,,,0.00,weatherlink.com 1.10,2013-04-06 05:24:00,
2013-04-06 00:39:00,50.8,46.0,30.10,North,0,0.0,-999.0,83,-99.99,,,0.00,weatherlink.com 1.10,2013-04-06 05:39:00,
2013-04-06 00:54:00,50.5,46.0,30.09,North,0,0.0,-999.0,83,-99.99,,,0.00,weatherlink.com 1.10,2013-04-06 05:54:00,
2013-04-06 01:09:00,50.2,46.0,30.09,North,0,0.0,-999.0,84,-99.99,,,0.00,weatherlink.com 1.10,2013-04-06 06:09:00,
2013-04-06 01:24:00,49.9,45.0,30.10,North,0,0.0,-999.0,84,-99.99,,,0.00,weatherlink.com 1.10,2013-04-06 06:24:00,
2013-04-06 01:39:00,49.5,45.0,30.10,North,0,0.0,-999.0,84,-99.99,,,0.00,weatherlink.com 1.10,2013-04-06 06:39:00,
2013-04-06 01:54:00,49.2,45.0,30.10,North,0,0.0,-999.0,85,-99.99,,,0.00,weatherlink.com 1.10,2013-04-06 06:54:00,
2013-04-06 02:09:00,48.8,45.0,30.09,North,0,0.0,-999.0,85,-99.99,,,0.00,weatherlink.com 1.10,2013-04-06 07:09:00,
2013-04-06 02:24:00,48.5,44.0,30.09,North,0,0.0,-999.0,85,-99.99,,,0.00,weatherlink.com 1.10,2013-04-06 07:24:00,
2013-04-06 02:39:00,48.0,44.0,30.09,North,0,0.0,-999.0,86,-99.99,,,0.00,weatherlink.com 1.10,2013-04-06 07:39:00,
2013-04-06 02:54:00,47.7,44.0,30.09,North,0,0.0,-999.0,86,-99.99,,,0.00,weatherlink.com 1.10,2013-04-06 07:54:00,
2013-04-06 03:09:00,47.4,44.0,30.08,North,0,0.0,-999.0,87,-99.99,,,0.00,weatherlink.com 1.10,2013-04-06 08:09:00,
2013-04-06 03:24:00,47.6,44.0,30.08,North,0,0.0,-999.0,88,-99.99,,,0.00,weatherlink.com 1.10,2013-04-06 08:24:00,
2013-04-06 03:39:00,47.3,44.0,30.08,North,0,0.0,-999.0,89,-99.99,,,0.00,weatherlink.com 1.10,2013-04-06 08:39:00,
2013-04-06 03:54:00,47.0,44.0,30.08,North,0,0.0,-999.0,89,-99.99,,,0.00,weatherlink.com 1.10,2013-04-06 08:54:00,
2013-04-06 04:09:00,46.4,43.0,30.08,North,0,0.0,-999.0,89,-99.99,,,0.00,weatherlink.com 1.10,2013-04-06 09:09:00,
2013-04-06 04:24:00,46.1,43.0,30.07,North,0,0.0,-999.0,89,-99.99,,,0.00,weatherlink.com 1.10,2013-04-06 09:24:00,
2013-04-06 04:39:00,46.0,43.0,30.07,North,0,0.0,-999.0,89,-99.99,,,0.00,weatherlink.com 1.10,2013-04-06 09:39:00,
2013-04-06 04:54:00,45.7,43.0,30.06,North,0,0.0,-999.0,90,-99.99,,,0.00,weatherlink.com 1.10,2013-04-06 09:54:00,
2013-04-06 05:09:00,45.4,43.0,30.07,North,0,0.0,-999.0,90,-99.99,,,0.00,weatherlink.com 1.10,2013-04-06 10:09:00,
2013-04-06 05:24:00,45.4,43.0,30.07,North,0,0.0,-999.0,90,-99.99,,,0.00,weatherlink.com 1.10,2013-04-06 10:24:00,
2013-04-06 05:40:00,45.2,43.0,30.06,North,0,0.0,-999.0,91,-99.99,,,0.00,weatherlink.com 1.10,2013-04-06 10:40:00,
2013-04-06 05:55:00,45.2,43.0,30.07,North,0,0.0,-999.0,91,-99.99,,,0.00,weatherlink.com 1.10,2013-04-06 10:55:00,
2013-04-06 06:10:00,45.4,43.0,30.06,North,0,0.0,-999.0,91,-99.99,,,0.00,weatherlink.com 1.10,2013-04-06 11:10:00,
2013-04-06 06:25:00,45.2,43.0,30.07,North,0,0.0,-999.0,91,-99.99,,,0.00,weatherlink.com 1.10,2013-04-06 11:25:00,
2013-04-06 06:40:00,45.2,43.0,30.06,North,0,0.0,-999.0,92,-99.99,,,0.00,weatherlink.com 1.10,2013-04-06 11:40:00,
2013-04-06 06:55:00,45.2,43.0,30.07,North,0,0.0,-999.0,92,-99.99,,,0.00,weatherlink.com 1.10,2013-04-06 11:55:00,
2013-04-06 07:10:00,45.1,43.0,30.07,North,0,0.0,-999.0,92,-99.99,,,0.00,weatherlink.com 1.10,2013-04-06 12:10:00,
2013-04-06 07:25:00,45.2,43.0,30.08,North,0,0.0,-999.0,92,-99.99,,,0.00,weatherlink.com 1.10,2013-04-06 12:25:00,
2013-04-06 07:40:00,45.7,44.0,30.08,North,0,0.0,-999.0,93,-99.99,,,0.00,weatherlink.com 1.10,2013-04-06 12:40:00,
2013-04-06 07:55:00,47.3,46.0,30.08,North,0,0.0,-999.0,94,-99.99,,,0.00,weatherlink.com 1.10,2013-04-06 12:55:00,
2013-04-06 08:10:00,49.5,48.0,30.08,SE,136,2.0,-999.0,93,-99.99,,,0.00,weatherlink.com 1.10,2013-04-06 13:10:00,
2013-04-06 08:25:00,50.7,49.0,30.08,SE,145,0.0,-999.0,93,-99.99,,,0.00,weatherlink.com 1.10,2013-04-06 13:25:00,
2013-04-06 08:40:00,51.4,49.0,30.08,SSE,167,1.0,-999.0,91,-99.99,,,0.00,weatherlink.com 1.10,2013-04-06 13:40:00,
2013-04-06 08:55:00,53.5,50.0,30.09,ENE,73,2.0,-999.0,87,-99.99,,,0.00,weatherlink.com 1.10,2013-04-06 13:55:00,
2013-04-06 09:10:00,55.0,50.0,30.08,South,174,0.0,-999.0,82,-99.99,,,0.00,weatherlink.com 1.10,2013-04-06 14:10:00,
2013-04-06 09:25:00,56.6,50.0,30.08,SSE,157,2.0,-999.0,78,-99.99,,,0.00,weatherlink.com 1.10,2013-04-06 14:25:00,
2013-04-06 09:40:00,59.2,51.0,30.09,SSE,167,3.0,-999.0,73,-99.99,,,0.00,weatherlink.com 1.10,2013-04-06 14:40:00,
2013-04-06 09:55:00,60.9,51.0,30.08,SSE,154,5.0,-999.0,69,-99.99,,,0.00,weatherlink.com 1.10,2013-04-06 14:55:00,
2013-04-06 10:10:00,62.9,51.0,30.08,SE,137,3.0,-999.0,65,-99.99,,,0.00,weatherlink.com 1.10,2013-04-06 15:10:00,
2013-04-06 10:25:00,64.3,51.0,30.09,SSE,164,2.0,-999.0,63,-99.99,,,0.00,weatherlink.com 1.10,2013-04-06 15:25:00,
2013-04-06 10:40:00,65.2,50.0,30.09,SSE,161,5.0,-999.0,59,-99.99,,,0.00,weatherlink.com 1.10,2013-04-06 15:40:00,
2013-04-06 10:55:00,66.4,51.0,30.09,South,176,1.0,-999.0,57,-99.99,,,0.00,weatherlink.com 1.10,2013-04-06 15:55:00,
2013-04-06 11:10:00,66.9,51.0,30.09,South,172,6.0,-999.0,58,-99.99,,,0.00,weatherlink.com 1.10,2013-04-06 16:10:00,
2013-04-06 11:25:00,68.8,53.0,30.09,South,174,7.0,-999.0,58,-99.99,,,0.00,weatherlink.com 1.10,2013-04-06 16:25:00,
2013-04-06 11:40:00,68.1,51.0,30.08,South,174,7.0,-999.0,54,-99.99,,,0.00,weatherlink.com 1.10,2013-04-06 16:40:00,
2013-04-06 11:55:00,70.3,51.0,30.08,SSW,200,5.0,-999.0,51,-99.99,,,0.00,weatherlink.com 1.10,2013-04-06 16:55:00,
2013-04-06 12:10:00,70.9,51.0,30.08,South,174,5.0,-999.0,49,-99.99,,,0.00,weatherlink.com 1.10,2013-04-06 17:10:00,
2013-04-06 12:25:00,70.9,51.0,30.07,South,185,2.0,-999.0,49,-99.99,,,0.00,weatherlink.com 1.10,2013-04-06 17:25:00,
2013-04-06 12:40:00,72.1,51.0,30.06,SSE,158,3.0,-999.0,47,-99.99,,,0.00,weatherlink.com 1.10,2013-04-06 17:40:00,
2013-04-06 12:55:00,72.8,50.0,30.06,SE,141,5.0,-999.0,45,-99.99,,,0.00,weatherlink.com 1.10,2013-04-06 17:55:00,
2013-04-06 13:10:00,72.8,52.0,30.06,WSW,248,2.0,-999.0,48,-99.99,,,0.00,weatherlink.com 1.10,2013-04-06 18:10:00,
2013-04-06 13:25:00,72.8,51.0,30.05,SSE,167,3.0,-999.0,47,-99.99,,,0.00,weatherlink.com 1.10,2013-04-06 18:25:00,
2013-04-06 13:40:00,73.7,51.0,30.04,SSE,165,8.0,-999.0,45,-99.99,,,0.00,weatherlink.com 1.10,2013-04-06 18:40:00,
2013-04-06 13:55:00,74.4,52.0,30.03,SE,140,4.0,-999.0,45,-99.99,,,0.00,weatherlink.com 1.10,2013-04-06 18:55:00,
2013-04-06 14:10:00,74.4,53.0,30.02,SSW,196,7.0,-999.0,47,-99.99,,,0.00,weatherlink.com 1.10,2013-04-06 19:10:00,
2013-04-06 14:25:00,74.6,54.0,30.01,SSE,167,2.0,-999.0,48,-99.99,,,0.00,weatherlink.com 1.10,2013-04-06 19:25:00,
2013-04-06 14:40:00,73.9,53.0,30.00,SE,143,5.0,-999.0,48,-99.99,,,0.00,weatherlink.com 1.10,2013-04-06 19:40:00,
2013-04-06 14:55:00,73.9,53.0,30.00,SSE,154,3.0,-999.0,49,-99.99,,,0.00,weatherlink.com 1.10,2013-04-06 19:55:00,
2013-04-06 15:10:00,73.7,53.0,29.98,South,175,4.0,-999.0,49,-99.99,,,0.00,weatherlink.com 1.10,2013-04-06 20:10:00,
2013-04-06 15:25:00,74.9,53.0,29.98,South,188,7.0,-999.0,47,-99.99,,,0.00,weatherlink.com 1.10,2013-04-06 20:25:00,
2013-04-06 15:40:00,74.7,54.0,29.98,South,181,6.0,-999.0,49,-99.99,,,0.00,weatherlink.com 1.10,2013-04-06 20:40:00,
2013-04-06 15:55:00,75.3,55.0,29.97,SSW,192,8.0,-999.0,49,-99.99,,,0.00,weatherlink.com 1.10,2013-04-06 20:55:00,
2013-04-06 16:10:00,74.7,55.0,29.97,SSW,198,4.0,-999.0,50,-99.99,,,0.00,weatherlink.com 1.10,2013-04-06 21:10:00,
2013-04-06 16:25:00,73.5,54.0,29.96,South,169,7.0,-999.0,51,-99.99,,,0.00,weatherlink.com 1.10,2013-04-06 21:25:00,
2013-04-06 16:40:00,73.9,54.0,29.96,ESE,104,4.0,-999.0,50,-99.99,,,0.00,weatherlink.com 1.10,2013-04-06 21:40:00,
2013-04-06 16:55:00,74.2,55.0,29.96,SW,217,2.0,-999.0,52,-99.99,,,0.00,weatherlink.com 1.10,2013-04-06 21:55:00,
2013-04-06 17:10:00,72.8,54.0,29.95,SE,138,9.0,-999.0,52,-99.99,,,0.00,weatherlink.com 1.10,2013-04-06 22:10:00,
2013-04-06 17:40:00,72.7,55.0,29.95,SW,219,1.0,-999.0,54,-99.99,,,0.00,weatherlink.com 1.10,2013-04-06 22:40:00,
2013-04-06 17:55:00,72.0,55.0,29.95,South,171,2.0,-999.0,55,-99.99,,,0.00,weatherlink.com 1.10,2013-04-06 22:55:00,
2013-04-06 18:10:00,71.3,55.0,29.95,SSE,151,2.0,-999.0,56,-99.99,,,0.00,weatherlink.com 1.10,2013-04-06 23:10:00,
2013-04-06 18:25:00,70.3,54.0,29.95,SSE,150,5.0,-999.0,56,-99.99,,,0.00,weatherlink.com 1.10,2013-04-06 23:25:00,
2013-04-06 18:40:00,69.6,54.0,29.95,South,169,3.0,-999.0,58,-99.99,,,0.00,weatherlink.com 1.10,2013-04-06 23:40:00,
2013-04-06 18:55:00,68.6,54.0,29.95,SSE,164,2.0,-999.0,59,-99.99,,,0.00,weatherlink.com 1.10,2013-04-06 23:55:00,
2013-04-06 19:10:00,68.1,54.0,29.95,SE,145,3.0,-999.0,60,-99.99,,,0.00,weatherlink.com 1.10,2013-04-07 00:10:00,
2013-04-06 19:25:00,67.6,54.0,29.95,SSE,160,3.0,-999.0,61,-99.99,,,0.00,weatherlink.com 1.10,2013-04-07 00:25:00,
2013-04-06 19:40:00,67.1,54.0,29.96,South,181,2.0,-999.0,63,-99.99,,,0.00,weatherlink.com 1.10,2013-04-07 00:40:00,
2013-04-06 19:55:00,66.6,54.0,29.96,SSW,193,2.0,-999.0,65,-99.99,,,0.00,weatherlink.com 1.10,2013-04-07 00:55:00,
2013-04-06 20:10:00,66.0,54.0,29.96,South,188,2.0,-999.0,66,-99.99,,,0.00,weatherlink.com 1.10,2013-04-07 01:10:00,
2013-04-06 20:25:00,65.3,54.0,29.96,SSE,160,7.0,-999.0,67,-99.99,,,0.00,weatherlink.com 1.10,2013-04-07 01:25:00,
2013-04-06 20:40:00,64.7,54.0,29.97,SSE,164,0.0,-999.0,69,-99.99,,,0.00,weatherlink.com 1.10,2013-04-07 01:40:00,
2013-04-06 20:55:00,63.9,54.0,29.96,ESE,120,0.0,-999.0,71,-99.99,,,0.00,weatherlink.com 1.10,2013-04-07 01:55:00,
2013-04-06 21:09:00,63.4,55.0,29.96,SSE,152,3.0,-999.0,73,-99.99,,,0.00,weatherlink.com 1.10,2013-04-07 02:09:00,
2013-04-06 21:24:00,62.9,55.0,29.97,South,169,0.0,-999.0,74,-99.99,,,0.00,weatherlink.com 1.10,2013-04-07 02:24:00,
2013-04-06 21:39:00,62.6,54.0,29.98,South,171,0.0,-999.0,74,-99.99,,,0.00,weatherlink.com 1.10,2013-04-07 02:39:00,
2013-04-06 21:54:00,62.1,54.0,29.98,South,171,0.0,-999.0,75,-99.99,,,0.00,weatherlink.com 1.10,2013-04-07 02:54:00,
2013-04-06 22:09:00,61.6,54.0,29.98,SSE,154,0.0,-999.0,75,-99.99,,,0.00,weatherlink.com 1.10,2013-04-07 03:09:00,
2013-04-06 22:24:00,61.0,53.0,29.99,SSE,154,0.0,-999.0,75,-99.99,,,0.00,weatherlink.com 1.10,2013-04-07 03:24:00,
2013-04-06 22:40:00,60.4,53.0,29.99,SSE,154,0.0,-999.0,76,-99.99,,,0.00,weatherlink.com 1.10,2013-04-07 03:40:00,
2013-04-06 22:54:00,59.9,53.0,29.99,SSE,162,0.0,-999.0,79,-99.99,,,0.00,weatherlink.com 1.10,2013-04-07 03:54:00,
2013-04-06 23:10:00,59.5,53.0,29.99,SSE,162,0.0,-999.0,80,-99.99,,,0.00,weatherlink.com 1.10,2013-04-07 04:10:00,
2013-04-06 23:24:00,59.0,53.0,29.99,SSE,162,0.0,-999.0,80,-99.99,,,0.00,weatherlink.com 1.10,2013-04-07 04:24:00,
2013-04-06 23:39:00,58.7,53.0,29.99,SE,145,2.0,-999.0,81,-99.99,,,0.00,weatherlink.com 1.10,2013-04-07 04:39:00,